Darstellungsparameter: Aktuell verwendete Einstellungen:
Skalierung der Graphiken ... ?
xyx+y,   Skalierungsfaktor:      Skalierung: Modus: x, Faktor: 1
Darstellungszeitraum ... ?
Vom - - bis: - -   Zeitraum: 16.06.2005 - 22.06.2005
Min/Max/Avg-Anzeige ... ?
Zeige MMA aktuell
Zeige MMA Monat
Zeige MMA alles
Zeige --A aktuell
Zeige --A Monat
Zeige --A alles
Keine MMA-Anzeige
MMA:
Minimum Maximum Average (ber die Originaldaten)
MMA-Basis: 14.04.2020 - 16.05.2020
Quicknavigation für Darstellung... ?
Tage:      1T, 2T, 3T, 5T -1T -2T -3T -5T +1T +2T +3T +5T
Wochen: 1W, 2W, 3W -1W -2W -3W +1W +2W +3W
Monate: 1M, 3M, 6M -1M -3M -6M +1M +3M +6M
Jahre:    1J, 3J, 5J, 10J -1J -3J -5J -10J +1J +3J +5J +10J
Nutze für die Darstellung ... ?
Originaldaten oder Mittelwerte auf ...
Stundenbasis Tagesbasis Wochenbasis
Monatsbasis Jahresbasis      Datenbasis: Original-Daten
Darstellen als:
Statistik (Auto) Statistik J:M      Darstellung:
Zur Graphik,    zurück zur Übersicht aller Sensoren.
 
Tabellarische Datenbersicht: ?
 
Sensor: Nr:Datum:Temp:Abs-Feuchte:Windchill:Wind:
Aussen-T/F 1 16-06-2005 00:07:02 20.8 C 7.79 g/m*3 20.8 C 0 km/h
2 16-06-2005 00:19:02 20.6 C 7.34 g/m*3 20.6 C 0 km/h
3 16-06-2005 00:31:01 20.3 C 7.39 g/m*3 20.3 C 0 km/h
4 16-06-2005 00:43:01 20.1 C 7.3 g/m*3 20.1 C 0 km/h
5 16-06-2005 00:55:02 20 C 7.26 g/m*3 20 C 0 km/h
6 16-06-2005 01:07:02 19.7 C 7.47 g/m*3 19.7 C 0 km/h
7 16-06-2005 01:19:02 19.7 C 7.47 g/m*3 19.7 C 0 km/h
8 16-06-2005 01:31:01 19.6 C 7.6 g/m*3 19.6 C 0 km/h
9 16-06-2005 01:43:01 19.5 C 7.72 g/m*3 19.5 C 0 km/h
10 16-06-2005 01:55:02 19.4 C 7.67 g/m*3 19.4 C 0 km/h
11 16-06-2005 02:07:02 19.3 C 7.63 g/m*3 19.3 C 0 km/h
12 16-06-2005 02:19:02 19.1 C 7.54 g/m*3 19.1 C 0 km/h
13 16-06-2005 02:31:01 19 C 7.66 g/m*3 19 C 0 km/h
14 16-06-2005 02:43:01 18.9 C 7.78 g/m*3 18.9 C 0 km/h
15 16-06-2005 02:56:03 18.7 C 7.84 g/m*3 18.7 C 0 km/h
16 16-06-2005 03:08:03 18.3 C 7.82 g/m*3 18.3 C 0 km/h
17 16-06-2005 03:20:04 18.3 C 7.97 g/m*3 18.3 C 0 km/h
18 16-06-2005 03:32:02 18.3 C 7.97 g/m*3 18.3 C 0 km/h
19 16-06-2005 03:44:02 17.8 C 9.26 g/m*3 17.8 C 0 km/h
20 16-06-2005 03:56:02 17.8 C 8.8 g/m*3 17.8 C 0 km/h
21 16-06-2005 04:08:02 18 C 8.45 g/m*3 18 C 0 km/h
22 16-06-2005 04:20:02 18 C 8.29 g/m*3 18 C 0 km/h
23 16-06-2005 04:32:02 18 C 8.29 g/m*3 18 C 0 km/h
24 16-06-2005 04:44:02 17.9 C 8.4 g/m*3 17.9 C 0 km/h
25 16-06-2005 04:56:02 17.8 C 8.5 g/m*3 17.8 C 0 km/h
Sensor: Nr:Datum:Temp:Abs-Feuchte:Windchill:Wind:
Aussen-T/F 26 16-06-2005 05:08:02 17.5 C 8.5 g/m*3 17.5 C 0 km/h
27 16-06-2005 05:20:02 17.3 C 8.54 g/m*3 17.3 C 0 km/h
28 16-06-2005 05:32:03 17.3 C 8.69 g/m*3 17.3 C 0 km/h
29 16-06-2005 05:44:03 17.5 C 8.8 g/m*3 17.5 C 0 km/h
30 16-06-2005 05:56:02 17.5 C 8.95 g/m*3 17.5 C 0 km/h
31 16-06-2005 06:08:02 17.3 C 8.99 g/m*3 17.3 C 0 km/h
32 16-06-2005 06:20:02 17.3 C 9.13 g/m*3 17.3 C 0 km/h
33 16-06-2005 06:32:02 17.3 C 9.13 g/m*3 17.3 C 0 km/h
34 16-06-2005 06:44:02 17.3 C 9.28 g/m*3 17.3 C 0 km/h
35 16-06-2005 06:56:02 17.5 C 9.39 g/m*3 17.5 C 0 km/h
36 16-06-2005 07:08:02 17.4 C 9.48 g/m*3 17.4 C 0 km/h
37 16-06-2005 07:20:01 17.7 C 9.66 g/m*3 17.7 C 0 km/h
38 16-06-2005 07:32:02 18 C 9.68 g/m*3 18 C 0 km/h
39 16-06-2005 07:44:02 17.8 C 9.87 g/m*3 17.8 C 0 km/h
40 16-06-2005 07:56:02 17.9 C 10.08 g/m*3 17.9 C 0 km/h
41 16-06-2005 08:08:01 18.1 C 9.89 g/m*3 18.1 C 0 km/h
42 16-06-2005 08:20:02 18.5 C 10.13 g/m*3 18.5 C 0 km/h
43 16-06-2005 08:32:02 19 C 10.1 g/m*3 19 C 0 km/h
44 16-06-2005 08:44:02 19.1 C 10.16 g/m*3 19.1 C 0 km/h
45 16-06-2005 08:56:03 19.3 C 10.12 g/m*3 19.3 C 0 km/h
46 16-06-2005 09:08:02 19.4 C 10.01 g/m*3 19.4 C 0 km/h
47 16-06-2005 09:20:03 19.8 C 10.08 g/m*3 19.8 C 0 km/h
48 16-06-2005 09:32:02 19.6 C 9.96 g/m*3 19.6 C 0 km/h
49 16-06-2005 09:44:03 19.8 C 9.91 g/m*3 19.8 C 0 km/h
50 16-06-2005 09:56:02 20 C 9.85 g/m*3 20 C 0 km/h
Sensor: Nr:Datum:Temp:Abs-Feuchte:Windchill:Wind:
Aussen-T/F 51 16-06-2005 10:08:02 20.4 C 9.91 g/m*3 20.4 C 0 km/h
52 16-06-2005 10:20:01 20.4 C 9.73 g/m*3 20.4 C 0 km/h
53 16-06-2005 10:32:02 20.8 C 9.96 g/m*3 20.8 C 0 km/h
54 16-06-2005 10:44:02 21.2 C 9.64 g/m*3 21.2 C 0 km/h
55 16-06-2005 10:56:02 21.9 C 9.84 g/m*3 21.9 C 0 km/h
56 16-06-2005 11:08:02 22.1 C 9.37 g/m*3 22.1 C 0 km/h
57 16-06-2005 11:20:02 21.7 C 9.92 g/m*3 21.7 C 0 km/h
58 16-06-2005 11:32:01 21.9 C 10.03 g/m*3 21.9 C 0 km/h
59 16-06-2005 11:44:01 22 C 9.51 g/m*3 22 C 0 km/h
60 16-06-2005 11:56:02 22.5 C 9.59 g/m*3 22.5 C 0 km/h
61 16-06-2005 12:08:02 22.6 C 9.04 g/m*3 22.6 C 0 km/h
62 16-06-2005 12:20:02 22.8 C 9.14 g/m*3 22.8 C 0 km/h
63 16-06-2005 12:32:02 23.3 C 8.57 g/m*3 23.3 C 0 km/h
64 16-06-2005 12:44:02 23.5 C 8.88 g/m*3 23.5 C 0 km/h
65 16-06-2005 12:56:02 23.2 C 8.52 g/m*3 23.2 C 0 km/h
66 16-06-2005 13:08:02 23.9 C 8.44 g/m*3 23.9 C 0 km/h
67 16-06-2005 13:20:02 24.6 C 8.33 g/m*3 24.6 C 0 km/h
68 16-06-2005 13:32:02 25.4 C 8.24 g/m*3 25.4 C 0 km/h
69 16-06-2005 13:44:02 25.1 C 8.57 g/m*3 25.1 C 0 km/h
70 16-06-2005 13:56:02 24.5 C 8.5 g/m*3 24.5 C 0 km/h
71 16-06-2005 14:08:02 24.5 C 8.5 g/m*3 24.5 C 0 km/h
72 16-06-2005 14:20:03 24.5 C 8.73 g/m*3 24.5 C 0 km/h
73 16-06-2005 14:32:02 24.4 C 8.68 g/m*3 24.4 C 0 km/h
74 16-06-2005 14:44:02 24.5 C 8.5 g/m*3 24.5 C 0 km/h
75 16-06-2005 14:56:02 25.1 C 8.57 g/m*3 25.1 C 0 km/h
Sensor: Nr:Datum:Temp:Abs-Feuchte:Windchill:Wind:
Aussen-T/F 76 16-06-2005 15:08:02 25.8 C 8.67 g/m*3 25.8 C 0 km/h
77 16-06-2005 15:20:02 25.7 C 8.86 g/m*3 25.7 C 0 km/h
78 16-06-2005 15:32:02 25.7 C 8.86 g/m*3 25.7 C 0 km/h
79 16-06-2005 15:44:02 25.5 C 8.52 g/m*3 25.5 C 0 km/h
80 16-06-2005 15:56:02 24.5 C 8.73 g/m*3 24.5 C 0 km/h
81 16-06-2005 16:08:02 24.3 C 9.07 g/m*3 24.3 C 0 km/h
82 16-06-2005 16:20:02 23.9 C 9.52 g/m*3 23.9 C 0 km/h
83 16-06-2005 16:32:02 23.8 C 9.25 g/m*3 23.8 C 0 km/h
84 16-06-2005 16:44:02 23.7 C 9.2 g/m*3 23.7 C 0 km/h
85 16-06-2005 16:56:02 24 C 9.14 g/m*3 24 C 0 km/h
86 16-06-2005 17:08:02 24.8 C 9.1 g/m*3 24.8 C 0 km/h
87 16-06-2005 17:20:02 24.9 C 9.16 g/m*3 24.9 C 0 km/h
88 16-06-2005 17:32:02 26.2 C 9.11 g/m*3 26.2 C 0 km/h
89 16-06-2005 17:44:02 25.6 C 9.05 g/m*3 25.6 C 0 km/h
90 16-06-2005 17:56:02 25.3 C 9.13 g/m*3 25.3 C 0 km/h
91 16-06-2005 18:08:02 25.2 C 9.31 g/m*3 25.2 C 0 km/h
92 16-06-2005 18:20:02 25 C 8.52 g/m*3 25 C 0 km/h
93 16-06-2005 18:32:02 25.3 C 8.9 g/m*3 25.3 C 0 km/h
94 16-06-2005 18:44:02 25 C 8.75 g/m*3 25 C 0 km/h
95 16-06-2005 18:56:02 24.8 C 8.88 g/m*3 24.8 C 0 km/h
96 16-06-2005 19:08:03 25 C 9.21 g/m*3 25 C 0 km/h
97 16-06-2005 19:20:02 25.5 C 9 g/m*3 25.5 C 0 km/h
98 16-06-2005 19:32:02 25.9 C 8.96 g/m*3 25.9 C 0 km/h
99 16-06-2005 19:44:02 25.8 C 9.15 g/m*3 25.8 C 0 km/h
100 16-06-2005 19:56:03 26.2 C 9.35 g/m*3 26.2 C 0 km/h
Sensor: Nr:Datum:Temp:Abs-Feuchte:Windchill:Wind:
Aussen-T/F 101 16-06-2005 20:08:02 25.2 C 9.31 g/m*3 25.2 C 0 km/h
102 16-06-2005 20:20:02 24.5 C 9.85 g/m*3 24.5 C 0 km/h
103 16-06-2005 20:32:02 23.9 C 9.74 g/m*3 23.9 C 0 km/h
104 16-06-2005 20:44:02 23.3 C 9.41 g/m*3 23.3 C 0 km/h
105 16-06-2005 20:56:02 23.1 C 8.89 g/m*3 23.1 C 0 km/h
106 16-06-2005 21:08:02 22.7 C 9.29 g/m*3 22.7 C 0 km/h
107 16-06-2005 21:20:02 22.4 C 9.14 g/m*3 22.4 C 0 km/h
108 16-06-2005 21:32:03 21.9 C 9.46 g/m*3 21.9 C 0 km/h
109 16-06-2005 21:44:03 21.3 C 9.13 g/m*3 21.3 C 0 km/h
110 16-06-2005 21:56:02 21.3 C 9.32 g/m*3 21.3 C 0 km/h
111 16-06-2005 22:08:02 21.4 C 9 g/m*3 21.4 C 0 km/h
112 16-06-2005 22:20:02 21.3 C 9.13 g/m*3 21.3 C 0 km/h
113 16-06-2005 22:32:02 21.2 C 9.08 g/m*3 21.2 C 0 km/h
114 16-06-2005 22:44:02 21.2 C 9.08 g/m*3 21.2 C 0 km/h
115 16-06-2005 22:56:02 21.2 C 9.08 g/m*3 21.2 C 0 km/h
116 16-06-2005 23:08:01 21.3 C 9.13 g/m*3 21.3 C 0 km/h
117 16-06-2005 23:20:02 21.4 C 9.37 g/m*3 21.4 C 0 km/h
118 16-06-2005 23:32:02 21.2 C 9.45 g/m*3 21.2 C 0 km/h
119 16-06-2005 23:44:02 21.1 C 9.4 g/m*3 21.1 C 0 km/h
120 16-06-2005 23:56:02 21 C 9.53 g/m*3 21 C 0 km/h
121 17-06-2005 00:08:02 20.8 C 9.6 g/m*3 20.8 C 0 km/h
122 17-06-2005 00:20:03 20.8 C 9.78 g/m*3 20.8 C 0 km/h
123 17-06-2005 00:32:03 20.8 C 9.96 g/m*3 20.8 C 0 km/h
124 17-06-2005 00:44:03 20.8 C 9.96 g/m*3 20.8 C 0 km/h
125 17-06-2005 00:56:03 20.7 C 10.26 g/m*3 20.7 C 0 km/h
Sensor: Nr:Datum:Temp:Abs-Feuchte:Windchill:Wind:
Aussen-T/F 126 17-06-2005 01:08:02 20.5 C 10.14 g/m*3 20.5 C 0 km/h
127 17-06-2005 01:20:02 20.6 C 10.38 g/m*3 20.6 C 0 km/h
128 17-06-2005 01:32:02 20.5 C 10.5 g/m*3 20.5 C 0 km/h
129 17-06-2005 01:44:03 20.3 C 10.38 g/m*3 20.3 C 0 km/h
130 17-06-2005 01:56:02 19.8 C 10.42 g/m*3 19.8 C 0 km/h
131 17-06-2005 02:08:02 19.5 C 10.57 g/m*3 19.5 C 0 km/h
132 17-06-2005 02:20:03 19.4 C 10.68 g/m*3 19.4 C 0 km/h
133 17-06-2005 02:32:02 19.6 C 10.64 g/m*3 19.6 C 0 km/h
134 17-06-2005 02:44:02 19.5 C 10.57 g/m*3 19.5 C 0 km/h
135 17-06-2005 02:57:03 19.4 C 10.68 g/m*3 19.4 C 0 km/h
136 17-06-2005 03:09:03 19.2 C 10.72 g/m*3 19.2 C 0 km/h
137 17-06-2005 03:21:03 19.2 C 10.72 g/m*3 19.2 C 0 km/h
138 17-06-2005 03:33:03 19.1 C 10.66 g/m*3 19.1 C 0 km/h
139 17-06-2005 03:45:03 18.9 C 11.18 g/m*3 18.9 C 0 km/h
140 17-06-2005 03:57:03 19.1 C 11.15 g/m*3 19.1 C 0 km/h
141 17-06-2005 04:09:02 19 C 11.57 g/m*3 19 C 0 km/h
142 17-06-2005 04:21:02 18.5 C 11.87 g/m*3 18.5 C 0 km/h
143 17-06-2005 04:33:02 17.9 C 12.37 g/m*3 17.9 C 0 km/h
144 17-06-2005 04:45:03 17.5 C 12.67 g/m*3 17.5 C 0 km/h
145 17-06-2005 04:57:03 17.5 C 12.97 g/m*3 17.5 C 0 km/h
146 17-06-2005 05:09:03 17.4 C 13.04 g/m*3 17.4 C 0 km/h
147 17-06-2005 05:21:03 17.2 C 12.89 g/m*3 17.2 C 0 km/h
148 17-06-2005 05:33:02 17.3 C 12.96 g/m*3 17.3 C 0 km/h
149 17-06-2005 05:45:02 17.5 C 13.12 g/m*3 17.5 C 0 km/h
150 17-06-2005 05:57:02 17.2 C 12.89 g/m*3 17.2 C 0 km/h
Sensor: Nr:Datum:Temp:Abs-Feuchte:Windchill:Wind:
Aussen-T/F 151 17-06-2005 06:09:02 17.2 C 12.89 g/m*3 17.2 C 0 km/h
152 17-06-2005 06:21:02 17.4 C 13.04 g/m*3 17.4 C 0 km/h
153 17-06-2005 06:33:03 17.6 C 13.05 g/m*3 17.6 C 0 km/h
154 17-06-2005 06:45:03 17.5 C 12.82 g/m*3 17.5 C 0 km/h
155 17-06-2005 06:57:03 17.7 C 12.82 g/m*3 17.7 C 0 km/h
156 17-06-2005 07:09:03 17.8 C 12.9 g/m*3 17.8 C 0 km/h
157 17-06-2005 07:21:02 18 C 12.9 g/m*3 18 C 0 km/h
158 17-06-2005 07:33:03 18.1 C 12.82 g/m*3 18.1 C 0 km/h
159 17-06-2005 07:45:02 18.1 C 12.67 g/m*3 18.1 C 0 km/h
160 17-06-2005 07:57:03 18.1 C 12.67 g/m*3 18.1 C 0 km/h
161 17-06-2005 08:09:02 18.3 C 12.82 g/m*3 18.3 C 0 km/h
162 17-06-2005 08:21:02 18.4 C 12.9 g/m*3 18.4 C 0 km/h
163 17-06-2005 08:33:02 18.5 C 12.82 g/m*3 18.5 C 0 km/h
164 17-06-2005 08:45:02 18.6 C 13.05 g/m*3 18.6 C 0 km/h
165 17-06-2005 08:57:02 18.9 C 13.12 g/m*3 18.9 C 0 km/h
166 17-06-2005 09:09:02 19 C 12.87 g/m*3 19 C 0 km/h
167 17-06-2005 09:21:01 19 C 12.87 g/m*3 19 C 0 km/h
168 17-06-2005 09:33:02 19.2 C 13.03 g/m*3 19.2 C 0 km/h
169 17-06-2005 09:45:02 19.3 C 12.94 g/m*3 19.3 C 0 km/h
170 17-06-2005 09:57:02 19.7 C 13.25 g/m*3 19.7 C 0 km/h
171 17-06-2005 10:09:02 19.9 C 13.4 g/m*3 19.9 C 0 km/h
172 17-06-2005 10:21:02 20.4 C 12.91 g/m*3 20.4 C 0 km/h
173 17-06-2005 10:33:02 20.6 C 13.07 g/m*3 20.6 C 0 km/h
174 17-06-2005 10:45:02 20.8 C 13.04 g/m*3 20.8 C 0 km/h
175 17-06-2005 10:57:02 21.2 C 13.16 g/m*3 21.2 C 0 km/h
Sensor: Nr:Datum:Temp:Abs-Feuchte:Windchill:Wind:
Aussen-T/F 176 17-06-2005 11:09:02 20.8 C 12.86 g/m*3 20.8 C 0 km/h
177 17-06-2005 11:21:02 20.9 C 13.48 g/m*3 20.9 C 0 km/h
178 17-06-2005 11:33:02 21 C 12.64 g/m*3 21 C 0 km/h
179 17-06-2005 11:45:02 21.9 C 12.74 g/m*3 21.9 C 0 km/h
180 17-06-2005 11:57:02 23.3 C 13.17 g/m*3 23.3 C 0 km/h
181 17-06-2005 12:09:02 23.1 C 11.78 g/m*3 23.1 C 0 km/h
182 17-06-2005 12:21:02 22.9 C 11.65 g/m*3 22.9 C 0 km/h
183 17-06-2005 12:33:02 23.3 C 11.71 g/m*3 23.3 C 0 km/h
184 17-06-2005 12:45:02 22.7 C 11.92 g/m*3 22.7 C 0 km/h
185 17-06-2005 12:57:02 22.8 C 12.19 g/m*3 22.8 C 0 km/h
186 17-06-2005 13:09:02 24.2 C 12.32 g/m*3 24.2 C 0 km/h
187 17-06-2005 13:21:02 24.9 C 11.9 g/m*3 24.9 C 0 km/h
188 17-06-2005 13:33:03 24.8 C 11.38 g/m*3 24.8 C 0 km/h
189 17-06-2005 13:45:02 24.7 C 11.32 g/m*3 24.7 C 0 km/h
190 17-06-2005 13:57:02 24.3 C 10.62 g/m*3 24.3 C 0 km/h
191 17-06-2005 14:09:02 24.7 C 11.54 g/m*3 24.7 C 0 km/h
192 17-06-2005 14:21:02 23.8 C 11.4 g/m*3 23.8 C 0 km/h
193 17-06-2005 14:33:02 23.8 C 11.4 g/m*3 23.8 C 0 km/h
194 17-06-2005 14:45:03 24.5 C 11.41 g/m*3 24.5 C 0 km/h
195 17-06-2005 14:57:03 24.6 C 11.25 g/m*3 24.6 C 0 km/h
196 17-06-2005 15:09:04 24.5 C 10.97 g/m*3 24.5 C 0 km/h
197 17-06-2005 15:21:02 24.4 C 10.9 g/m*3 24.4 C 0 km/h
198 17-06-2005 15:33:04 24.5 C 10.97 g/m*3 24.5 C 0 km/h
199 17-06-2005 15:45:02 24.6 C 10.58 g/m*3 24.6 C 0 km/h
200 17-06-2005 15:57:02 24.9 C 10.76 g/m*3 24.9 C 0 km/h
Sensor: Nr:Datum:Temp:Abs-Feuchte:Windchill:Wind:
Aussen-T/F 201 17-06-2005 16:09:02 24.8 C 10.7 g/m*3 24.8 C 0 km/h
202 17-06-2005 16:21:02 24.1 C 10.94 g/m*3 24.1 C 0 km/h
203 17-06-2005 16:33:01 24 C 10.88 g/m*3 24 C 0 km/h
204 17-06-2005 16:45:02 24.8 C 11.38 g/m*3 24.8 C 0 km/h
205 17-06-2005 16:57:02 25.2 C 11.41 g/m*3 25.2 C 0 km/h
206 17-06-2005 17:09:01 24.8 C 11.38 g/m*3 24.8 C 0 km/h
207 17-06-2005 17:21:02 24.5 C 11.19 g/m*3 24.5 C 0 km/h
208 17-06-2005 17:33:01 24.6 C 12.15 g/m*3 24.6 C 0 km/h
209 17-06-2005 17:45:02 24.5 C 11.86 g/m*3 24.5 C 0 km/h
210 17-06-2005 17:57:02 24.1 C 12.47 g/m*3 24.1 C 0 km/h
211 17-06-2005 18:09:02 23.8 C 12.05 g/m*3 23.8 C 0 km/h
212 17-06-2005 18:21:02 24 C 12.18 g/m*3 24 C 0 km/h
213 17-06-2005 18:33:02 24 C 11.75 g/m*3 24 C 0 km/h
214 17-06-2005 18:45:01 23.9 C 11.9 g/m*3 23.9 C 0 km/h
215 17-06-2005 18:57:01 23.7 C 11.98 g/m*3 23.7 C 0 km/h
216 17-06-2005 19:09:01 24 C 11.97 g/m*3 24 C 0 km/h
217 17-06-2005 19:21:01 23.9 C 11.9 g/m*3 23.9 C 0 km/h
218 17-06-2005 19:33:02 24.6 C 11.93 g/m*3 24.6 C 0 km/h
219 17-06-2005 19:45:02 24.2 C 11.88 g/m*3 24.2 C 0 km/h
220 17-06-2005 19:57:02 24.1 C 12.03 g/m*3 24.1 C 0 km/h
221 17-06-2005 20:09:02 24 C 12.18 g/m*3 24 C 0 km/h
222 17-06-2005 20:21:03 23.5 C 12.05 g/m*3 23.5 C 0 km/h
223 17-06-2005 20:33:02 23.3 C 12.13 g/m*3 23.3 C 0 km/h
224 17-06-2005 20:45:02 23.2 C 12.27 g/m*3 23.2 C 0 km/h
225 17-06-2005 20:57:02 23.4 C 12.41 g/m*3 23.4 C 0 km/h
Sensor: Nr:Datum:Temp:Abs-Feuchte:Windchill:Wind:
Aussen-T/F 226 17-06-2005 21:09:02 23 C 12.33 g/m*3 23 C 0 km/h
227 17-06-2005 21:21:02 22.8 C 12.6 g/m*3 22.8 C 0 km/h
228 17-06-2005 21:33:03 22.7 C 12.53 g/m*3 22.7 C 0 km/h
229 17-06-2005 21:45:02 22.5 C 12.58 g/m*3 22.5 C 0 km/h
230 17-06-2005 21:57:02 22.3 C 12.64 g/m*3 22.3 C 0 km/h
231 17-06-2005 22:09:02 22.1 C 12.69 g/m*3 22.1 C 0 km/h
232 17-06-2005 22:21:02 22 C 12.62 g/m*3 22 C 0 km/h
233 17-06-2005 22:33:02 22 C 12.62 g/m*3 22 C 0 km/h
234 17-06-2005 22:45:02 22 C 12.62 g/m*3 22 C 0 km/h
235 17-06-2005 22:57:02 21.9 C 12.93 g/m*3 21.9 C 0 km/h
236 17-06-2005 23:09:01 21.7 C 12.97 g/m*3 21.7 C 0 km/h
237 17-06-2005 23:21:02 21.6 C 12.9 g/m*3 21.6 C 0 km/h
238 17-06-2005 23:33:02 21.5 C 12.82 g/m*3 21.5 C 0 km/h
239 17-06-2005 23:45:02 21.4 C 12.75 g/m*3 21.4 C 0 km/h
240 17-06-2005 23:57:02 21.4 C 12.75 g/m*3 21.4 C 0 km/h
241 18-06-2005 00:09:02 21.3 C 12.68 g/m*3 21.3 C 0 km/h
242 18-06-2005 00:21:03 21.1 C 12.71 g/m*3 21.1 C 0 km/h
243 18-06-2005 00:33:02 21 C 12.64 g/m*3 21 C 0 km/h
244 18-06-2005 00:45:03 20.9 C 12.75 g/m*3 20.9 C 0 km/h
245 18-06-2005 00:57:03 20.8 C 12.67 g/m*3 20.8 C 0 km/h
246 18-06-2005 01:09:02 20.8 C 12.67 g/m*3 20.8 C 0 km/h
247 18-06-2005 01:21:02 20.9 C 12.75 g/m*3 20.9 C 0 km/h
248 18-06-2005 01:33:03 20.8 C 12.86 g/m*3 20.8 C 0 km/h
249 18-06-2005 01:45:03 20.7 C 12.96 g/m*3 20.7 C 0 km/h
250 18-06-2005 01:57:03 20.5 C 12.99 g/m*3 20.5 C 0 km/h
Sensor: Nr:Datum:Temp:Abs-Feuchte:Windchill:Wind:
Aussen-T/F 251 18-06-2005 02:09:03 20.4 C 12.91 g/m*3 20.4 C 0 km/h
252 18-06-2005 02:21:03 20.5 C 12.99 g/m*3 20.5 C 0 km/h
253 18-06-2005 02:33:03 20.3 C 13.01 g/m*3 20.3 C 0 km/h
254 18-06-2005 02:46:04 20.2 C 12.94 g/m*3 20.2 C 0 km/h
255 18-06-2005 02:58:04 20.1 C 12.86 g/m*3 20.1 C 0 km/h
256 18-06-2005 03:10:05 20 C 12.96 g/m*3 20 C 0 km/h
257 18-06-2005 03:22:05 19.9 C 13.06 g/m*3 19.9 C 0 km/h
258 18-06-2005 03:34:02 19.9 C 13.23 g/m*3 19.9 C 0 km/h
259 18-06-2005 03:46:02 19.8 C 13.15 g/m*3 19.8 C 0 km/h
260 18-06-2005 03:58:02 19.8 C 13.32 g/m*3 19.8 C 0 km/h
261 18-06-2005 04:10:02 19.8 C 13.32 g/m*3 19.8 C 0 km/h
262 18-06-2005 04:22:02 19.8 C 13.32 g/m*3 19.8 C 0 km/h
263 18-06-2005 04:34:01 19.8 C 13.32 g/m*3 19.8 C 0 km/h
264 18-06-2005 04:46:02 19.8 C 13.32 g/m*3 19.8 C 0 km/h
265 18-06-2005 04:58:02 19.7 C 13.25 g/m*3 19.7 C 0 km/h
266 18-06-2005 05:10:02 19.7 C 13.25 g/m*3 19.7 C 0 km/h
267 18-06-2005 05:22:02 19.7 C 13.25 g/m*3 19.7 C 0 km/h
268 18-06-2005 05:34:02 19.7 C 13.25 g/m*3 19.7 C 0 km/h
269 18-06-2005 05:46:02 19.7 C 13.25 g/m*3 19.7 C 0 km/h
270 18-06-2005 05:58:03 19.7 C 13.25 g/m*3 19.7 C 0 km/h
271 18-06-2005 06:10:02 19.9 C 13.23 g/m*3 19.9 C 0 km/h
272 18-06-2005 06:22:03 19.7 C 13.08 g/m*3 19.7 C 0 km/h
273 18-06-2005 06:34:02 19.5 C 13.09 g/m*3 19.5 C 0 km/h
274 18-06-2005 06:46:02 19.4 C 13.18 g/m*3 19.4 C 0 km/h
275 18-06-2005 06:58:02 19.4 C 13.18 g/m*3 19.4 C 0 km/h
Sensor: Nr:Datum:Temp:Abs-Feuchte:Windchill:Wind:
Aussen-T/F 276 18-06-2005 07:10:01 19.5 C 13.26 g/m*3 19.5 C 0 km/h
277 18-06-2005 07:22:02 19.9 C 13.23 g/m*3 19.9 C 0 km/h
278 18-06-2005 07:34:02 20.6 C 13.07 g/m*3 20.6 C 0 km/h
279 18-06-2005 07:46:03 20.7 C 12.42 g/m*3 20.7 C 0 km/h
280 18-06-2005 07:58:03 21 C 12.46 g/m*3 21 C 0 km/h
281 18-06-2005 08:10:02 21.4 C 12 g/m*3 21.4 C 0 km/h
282 18-06-2005 08:22:02 21.5 C 12.07 g/m*3 21.5 C 0 km/h
283 18-06-2005 08:34:03 21.2 C 11.86 g/m*3 21.2 C 0 km/h
284 18-06-2005 08:46:02 21.5 C 11.88 g/m*3 21.5 C 0 km/h
285 18-06-2005 08:58:02 21.5 C 11.5 g/m*3 21.5 C 0 km/h
286 18-06-2005 09:10:02 21.4 C 11.25 g/m*3 21.4 C 0 km/h
287 18-06-2005 09:22:02 22.2 C 10.99 g/m*3 22.2 C 0 km/h
288 18-06-2005 09:34:02 22.2 C 10.41 g/m*3 22.2 C 0 km/h
289 18-06-2005 09:46:02 22.5 C 10.59 g/m*3 22.5 C 0 km/h
290 18-06-2005 09:58:02 22.3 C 10.27 g/m*3 22.3 C 0 km/h
291 18-06-2005 10:10:02 22.9 C 10.01 g/m*3 22.9 C 0 km/h
292 18-06-2005 10:22:01 23.4 C 10.3 g/m*3 23.4 C 0 km/h
293 18-06-2005 10:34:02 23.8 C 9.9 g/m*3 23.8 C 0 km/h
294 18-06-2005 10:46:02 23.7 C 10.27 g/m*3 23.7 C 0 km/h
295 18-06-2005 10:58:02 23.8 C 9.9 g/m*3 23.8 C 0 km/h
296 18-06-2005 11:10:03 24.3 C 9.52 g/m*3 24.3 C 0 km/h
297 18-06-2005 11:22:03 24.6 C 9.9 g/m*3 24.6 C 0 km/h
298 18-06-2005 11:34:02 25.5 C 9.71 g/m*3 25.5 C 0 km/h
299 18-06-2005 11:46:03 25.2 C 9.31 g/m*3 25.2 C 0 km/h
300 18-06-2005 11:58:03 25.9 C 9.68 g/m*3 25.9 C 0 km/h
Sensor: Nr:Datum:Temp:Abs-Feuchte:Windchill:Wind:
Aussen-T/F 301 18-06-2005 12:10:02 26 C 9.01 g/m*3 26 C 0 km/h
302 18-06-2005 12:22:03 26.8 C 8.91 g/m*3 26.8 C 0 km/h
303 18-06-2005 12:34:02 27.8 C 9.15 g/m*3 27.8 C 0 km/h
304 18-06-2005 12:46:02 28.9 C 9.14 g/m*3 28.9 C 0 km/h
305 18-06-2005 12:58:02 29.7 C 8.35 g/m*3 29.7 C 0 km/h
306 18-06-2005 13:10:02 29.8 C 8.1 g/m*3 29.8 C 0 km/h
307 18-06-2005 13:22:02 30.8 C 7.6 g/m*3 30.8 C 0 km/h
308 18-06-2005 13:34:02 30.8 C 7.92 g/m*3 30.8 C 0 km/h
309 18-06-2005 13:46:02 30.7 C 7.24 g/m*3 30.7 C 0 km/h
310 18-06-2005 13:58:02 30.5 C 6.54 g/m*3 30.5 C 0 km/h
311 18-06-2005 14:10:02 30.2 C 7.66 g/m*3 30.2 C 0 km/h
312 18-06-2005 14:22:02 30 C 7.58 g/m*3 30 C 0 km/h
313 18-06-2005 14:34:03 30.3 C 7.7 g/m*3 30.3 C 0 km/h
314 18-06-2005 14:46:03 30.6 C 7.83 g/m*3 30.6 C 0 km/h
315 18-06-2005 14:58:03 31 C 7.36 g/m*3 31 C 0 km/h
316 18-06-2005 15:10:03 30.8 C 6.97 g/m*3 30.8 C 0 km/h
317 18-06-2005 15:22:02 30.9 C 6.68 g/m*3 30.9 C 0 km/h
318 18-06-2005 15:34:02 30.4 C 7.13 g/m*3 30.4 C 0 km/h
319 18-06-2005 15:46:02 31.4 C 6.87 g/m*3 31.4 C 0 km/h
320 18-06-2005 15:58:03 31.6 C 6.61 g/m*3 31.6 C 0 km/h
321 18-06-2005 16:10:01 31.2 C 6.47 g/m*3 31.2 C 0 km/h
322 18-06-2005 16:22:01 31.9 C 6.72 g/m*3 31.9 C 0 km/h
323 18-06-2005 16:34:01 31.7 C 6.64 g/m*3 31.7 C 0 km/h
324 18-06-2005 16:46:02 31.5 C 6.57 g/m*3 31.5 C 0 km/h
325 18-06-2005 16:58:02 31.9 C 6.72 g/m*3 31.9 C 0 km/h
Sensor: Nr:Datum:Temp:Abs-Feuchte:Windchill:Wind:
Aussen-T/F 326 18-06-2005 17:10:02 32.4 C 6.9 g/m*3 32.4 C 0 km/h
327 18-06-2005 17:22:03 32.3 C 6.86 g/m*3 32.3 C 0 km/h
328 18-06-2005 17:34:02 31.7 C 6.64 g/m*3 31.7 C 0 km/h
329 18-06-2005 17:46:02 31.8 C 6.68 g/m*3 31.8 C 0 km/h
330 18-06-2005 17:58:03 31.8 C 6.68 g/m*3 31.8 C 0 km/h
331 18-06-2005 18:10:02 32.1 C 6.79 g/m*3 32.1 C 0 km/h
332 18-06-2005 18:22:02 32.1 C 6.79 g/m*3 32.1 C 0 km/h
333 18-06-2005 18:34:02 31.9 C 6.72 g/m*3 31.9 C 0 km/h
334 18-06-2005 18:46:02 31.8 C 6.68 g/m*3 31.8 C 0 km/h
335 18-06-2005 18:58:02 31.9 C 6.72 g/m*3 31.9 C 0 km/h
336 18-06-2005 19:10:01 31.8 C 6.68 g/m*3 31.8 C 0 km/h
337 18-06-2005 19:22:02 31.6 C 6.61 g/m*3 31.6 C 0 km/h
338 18-06-2005 19:34:01 31.7 C 6.64 g/m*3 31.7 C 0 km/h
339 18-06-2005 19:46:02 31.5 C 6.57 g/m*3 31.5 C 0 km/h
340 18-06-2005 19:58:02 31 C 6.4 g/m*3 31 C 0 km/h
341 18-06-2005 20:10:01 30.9 C 6.37 g/m*3 30.9 C 0 km/h
342 18-06-2005 20:22:02 31.2 C 6.79 g/m*3 31.2 C 0 km/h
343 18-06-2005 20:34:01 30.9 C 6.68 g/m*3 30.9 C 0 km/h
344 18-06-2005 20:46:02 30.7 C 7.24 g/m*3 30.7 C 0 km/h
345 18-06-2005 20:58:02 30.1 C 6.71 g/m*3 30.1 C 0 km/h
346 18-06-2005 21:10:01 28.8 C 7.39 g/m*3 28.8 C 0 km/h
347 18-06-2005 21:22:02 27.1 C 6.99 g/m*3 27.1 C 0 km/h
348 18-06-2005 21:34:02 26.2 C 7.39 g/m*3 26.2 C 0 km/h
349 18-06-2005 21:46:03 25.2 C 6.98 g/m*3 25.2 C 0 km/h
350 18-06-2005 21:58:03 24.5 C 6.27 g/m*3 24.5 C 0 km/h
Sensor: Nr:Datum:Temp:Abs-Feuchte:Windchill:Wind:
Aussen-T/F 351 18-06-2005 22:10:03 24.2 C 6.6 g/m*3 24.2 C 0 km/h
352 18-06-2005 22:22:03 24 C 6.74 g/m*3 24 C 0 km/h
353 18-06-2005 22:34:02 23.7 C 6.84 g/m*3 23.7 C 0 km/h
354 18-06-2005 22:46:02 23.1 C 6.61 g/m*3 23.1 C 0 km/h
355 18-06-2005 22:58:02 22.8 C 6.71 g/m*3 22.8 C 0 km/h
356 18-06-2005 23:10:01 22.5 C 6.79 g/m*3 22.5 C 0 km/h
357 18-06-2005 23:22:01 22.2 C 6.87 g/m*3 22.2 C 0 km/h
358 18-06-2005 23:34:02 21.9 C 7.14 g/m*3 21.9 C 0 km/h
359 18-06-2005 23:46:02 21.7 C 7.25 g/m*3 21.7 C 0 km/h
360 18-06-2005 23:58:02 21.3 C 7.08 g/m*3 21.3 C 0 km/h
361 19-06-2005 00:10:02 21.3 C 6.9 g/m*3 21.3 C 0 km/h
362 19-06-2005 00:22:02 21.2 C 7.04 g/m*3 21.2 C 0 km/h
363 19-06-2005 00:34:03 20.8 C 7.06 g/m*3 20.8 C 0 km/h
364 19-06-2005 00:46:02 20.7 C 6.84 g/m*3 20.7 C 0 km/h
365 19-06-2005 00:58:02 20.5 C 6.41 g/m*3 20.5 C 0 km/h
366 19-06-2005 01:10:02 20.3 C 6.51 g/m*3 20.3 C 0 km/h
367 19-06-2005 01:22:02 20.2 C 6.47 g/m*3 20.2 C 0 km/h
368 19-06-2005 01:34:02 20.1 C 6.43 g/m*3 20.1 C 0 km/h
369 19-06-2005 01:46:02 20.1 C 6.26 g/m*3 20.1 C 0 km/h
370 19-06-2005 01:58:02 20.2 C 6.29 g/m*3 20.2 C 0 km/h
371 19-06-2005 02:10:02 19.8 C 6.49 g/m*3 19.8 C 0 km/h
372 19-06-2005 02:22:02 19.5 C 6.55 g/m*3 19.5 C 0 km/h
373 19-06-2005 02:34:02 19.1 C 6.56 g/m*3 19.1 C 0 km/h
374 19-06-2005 02:47:03 18.8 C 6.76 g/m*3 18.8 C 0 km/h
375 19-06-2005 02:59:04 18.3 C 6.72 g/m*3 18.3 C 0 km/h
Sensor: Nr:Datum:Temp:Abs-Feuchte:Windchill:Wind:
Aussen-T/F 376 19-06-2005 03:11:04 18 C 6.91 g/m*3 18 C 0 km/h
377 19-06-2005 03:23:04 17.8 C 6.83 g/m*3 17.8 C 0 km/h
378 19-06-2005 03:35:02 17.5 C 6.86 g/m*3 17.5 C 0 km/h
379 19-06-2005 03:47:02 17.2 C 6.74 g/m*3 17.2 C 0 km/h
380 19-06-2005 03:59:02 16.9 C 7.05 g/m*3 16.9 C 0 km/h
381 19-06-2005 04:11:02 16.7 C 7.11 g/m*3 16.7 C 0 km/h
382 19-06-2005 04:23:02 16.4 C 6.98 g/m*3 16.4 C 0 km/h
383 19-06-2005 04:35:02 16.2 C 7.17 g/m*3 16.2 C 0 km/h
384 19-06-2005 04:47:03 16.1 C 7.13 g/m*3 16.1 C 0 km/h
385 19-06-2005 04:59:03 15.8 C 7.27 g/m*3 15.8 C 0 km/h
386 19-06-2005 05:11:02 15.5 C 7.27 g/m*3 15.5 C 0 km/h
387 19-06-2005 05:23:03 15.2 C 7.27 g/m*3 15.2 C 0 km/h
388 19-06-2005 05:35:02 14.9 C 7.9 g/m*3 14.9 C 0 km/h
389 19-06-2005 05:47:02 14.6 C 7.76 g/m*3 14.6 C 0 km/h
390 19-06-2005 05:59:02 14.6 C 7.88 g/m*3 14.6 C 0 km/h
391 19-06-2005 06:11:02 14.6 C 8.13 g/m*3 14.6 C 0 km/h
392 19-06-2005 06:23:02 14.5 C 8.21 g/m*3 14.5 C 0 km/h
393 19-06-2005 06:35:02 14.7 C 8.31 g/m*3 14.7 C 0 km/h
394 19-06-2005 06:47:02 14.8 C 8.23 g/m*3 14.8 C 0 km/h
395 19-06-2005 06:59:02 14.9 C 8.41 g/m*3 14.9 C 0 km/h
396 19-06-2005 07:11:02 14.9 C 8.28 g/m*3 14.9 C 0 km/h
397 19-06-2005 07:23:02 15 C 8.21 g/m*3 15 C 0 km/h
398 19-06-2005 07:35:02 15.4 C 8.41 g/m*3 15.4 C 0 km/h
399 19-06-2005 07:47:02 15.5 C 8.33 g/m*3 15.5 C 0 km/h
400 19-06-2005 07:59:02 15.7 C 8.43 g/m*3 15.7 C 0 km/h
Sensor: Nr:Datum:Temp:Abs-Feuchte:Windchill:Wind:
Aussen-T/F 401 19-06-2005 08:11:02 15.9 C 8.53 g/m*3 15.9 C 0 km/h
402 19-06-2005 08:23:02 16.3 C 8.46 g/m*3 16.3 C 0 km/h
403 19-06-2005 08:35:02 16.7 C 8.38 g/m*3 16.7 C 0 km/h
404 19-06-2005 08:47:02 17.3 C 8.25 g/m*3 17.3 C 0 km/h
405 19-06-2005 08:59:03 18.2 C 8.24 g/m*3 18.2 C 0 km/h
406 19-06-2005 09:11:03 18.9 C 8.1 g/m*3 18.9 C 0 km/h
407 19-06-2005 09:23:02 19.7 C 8.15 g/m*3 19.7 C 0 km/h
408 19-06-2005 09:35:04 20.4 C 8.14 g/m*3 20.4 C 0 km/h
409 19-06-2005 09:47:02 21.3 C 8.02 g/m*3 21.3 C 0 km/h
410 19-06-2005 09:59:02 21.9 C 7.91 g/m*3 21.9 C 0 km/h
411 19-06-2005 10:11:02 22.6 C 7.83 g/m*3 22.6 C 0 km/h
412 19-06-2005 10:23:02 22.9 C 7.77 g/m*3 22.9 C 0 km/h
413 19-06-2005 10:35:03 23.4 C 7.57 g/m*3 23.4 C 0 km/h
414 19-06-2005 10:47:02 23.7 C 7.7 g/m*3 23.7 C 0 km/h
415 19-06-2005 10:59:02 24.6 C 7.65 g/m*3 24.6 C 0 km/h
416 19-06-2005 11:11:02 25.1 C 7.64 g/m*3 25.1 C 0 km/h
417 19-06-2005 11:23:02 25.7 C 7.66 g/m*3 25.7 C 0 km/h
418 19-06-2005 11:35:03 26.1 C 7.83 g/m*3 26.1 C 0 km/h
419 19-06-2005 11:47:02 26.9 C 7.17 g/m*3 26.9 C 0 km/h
420 19-06-2005 11:59:03 27.7 C 6.95 g/m*3 27.7 C 0 km/h
421 19-06-2005 12:11:04 28.6 C 7.31 g/m*3 28.6 C 0 km/h
422 19-06-2005 12:23:02 29.3 C 7.01 g/m*3 29.3 C 0 km/h
423 19-06-2005 12:35:02 29.8 C 6.9 g/m*3 29.8 C 0 km/h
424 19-06-2005 12:47:02 30.3 C 6.78 g/m*3 30.3 C 0 km/h
425 19-06-2005 12:59:02 30.4 C 6.82 g/m*3 30.4 C 0 km/h
Sensor: Nr:Datum:Temp:Abs-Feuchte:Windchill:Wind:
Aussen-T/F 426 19-06-2005 13:11:02 30.8 C 6.65 g/m*3 30.8 C 0 km/h
427 19-06-2005 13:23:02 31 C 6.4 g/m*3 31 C 0 km/h
428 19-06-2005 13:35:02 31.4 C 6.54 g/m*3 31.4 C 0 km/h
429 19-06-2005 13:47:02 31.2 C 6.47 g/m*3 31.2 C 0 km/h
430 19-06-2005 13:59:02 31.3 C 6.5 g/m*3 31.3 C 0 km/h
431 19-06-2005 14:11:02 30.9 C 6.37 g/m*3 30.9 C 0 km/h
432 19-06-2005 14:23:03 30.6 C 6.26 g/m*3 30.6 C 0 km/h
433 19-06-2005 14:35:02 31 C 6.4 g/m*3 31 C 0 km/h
434 19-06-2005 14:47:02 31.1 C 6.43 g/m*3 31.1 C 0 km/h
435 19-06-2005 14:59:03 31.8 C 6.68 g/m*3 31.8 C 0 km/h
436 19-06-2005 15:11:02 31.5 C 6.57 g/m*3 31.5 C 0 km/h
437 19-06-2005 15:23:03 32.3 C 6.86 g/m*3 32.3 C 0 km/h
438 19-06-2005 15:35:03 32.7 C 7.01 g/m*3 32.7 C 0 km/h
439 19-06-2005 15:47:01 33 C 7.12 g/m*3 33 C 0 km/h
440 19-06-2005 15:59:01 33.1 C 7.16 g/m*3 33.1 C 0 km/h
441 19-06-2005 16:11:01 33.3 C 7.23 g/m*3 33.3 C 0 km/h
442 19-06-2005 16:23:02 33.5 C 7.31 g/m*3 33.5 C 0 km/h
443 19-06-2005 16:35:01 33.7 C 7.39 g/m*3 33.7 C 0 km/h
444 19-06-2005 16:47:02 33.7 C 7.39 g/m*3 33.7 C 0 km/h
445 19-06-2005 16:59:02 33.9 C 7.46 g/m*3 33.9 C 0 km/h
446 19-06-2005 17:11:01 34.1 C 7.54 g/m*3 34.1 C 0 km/h
447 19-06-2005 17:23:03 33.6 C 7.35 g/m*3 33.6 C 0 km/h
448 19-06-2005 17:35:02 33.8 C 7.43 g/m*3 33.8 C 0 km/h
449 19-06-2005 17:47:02 34.2 C 7.58 g/m*3 34.2 C 0 km/h
450 19-06-2005 17:59:02 33.9 C 7.46 g/m*3 33.9 C 0 km/h
Sensor: Nr:Datum:Temp:Abs-Feuchte:Windchill:Wind:
Aussen-T/F 451 19-06-2005 18:11:02 33.9 C 7.46 g/m*3 33.9 C 0 km/h
452 19-06-2005 18:23:02 33.9 C 7.46 g/m*3 33.9 C 0 km/h
453 19-06-2005 18:35:02 34.1 C 7.54 g/m*3 34.1 C 0 km/h
454 19-06-2005 18:47:01 34 C 7.5 g/m*3 34 C 0 km/h
455 19-06-2005 18:59:01 33.8 C 7.43 g/m*3 33.8 C 0 km/h
456 19-06-2005 19:11:01 33.8 C 7.43 g/m*3 33.8 C 0 km/h
457 19-06-2005 19:23:01 33.8 C 7.43 g/m*3 33.8 C 0 km/h
458 19-06-2005 19:35:02 33.8 C 7.43 g/m*3 33.8 C 0 km/h
459 19-06-2005 19:47:02 33.6 C 7.35 g/m*3 33.6 C 0 km/h
460 19-06-2005 19:59:02 33.4 C 7.27 g/m*3 33.4 C 0 km/h
461 19-06-2005 20:11:03 33.3 C 7.23 g/m*3 33.3 C 0 km/h
462 19-06-2005 20:23:02 32.7 C 7.01 g/m*3 32.7 C 0 km/h
463 19-06-2005 20:35:03 32.1 C 7.13 g/m*3 32.1 C 0 km/h
464 19-06-2005 20:47:02 31.7 C 7.31 g/m*3 31.7 C 0 km/h
465 19-06-2005 20:59:02 31 C 8.32 g/m*3 31 C 0 km/h
466 19-06-2005 21:11:02 30 C 8.79 g/m*3 30 C 0 km/h
467 19-06-2005 21:23:01 28.9 C 8.86 g/m*3 28.9 C 0 km/h
468 19-06-2005 21:35:02 27.8 C 8.61 g/m*3 27.8 C 0 km/h
469 19-06-2005 21:47:02 27 C 8.49 g/m*3 27 C 0 km/h
470 19-06-2005 21:59:02 26.4 C 8.46 g/m*3 26.4 C 0 km/h
471 19-06-2005 22:11:01 25.8 C 8.43 g/m*3 25.8 C 0 km/h
472 19-06-2005 22:23:02 25.3 C 8.19 g/m*3 25.3 C 0 km/h
473 19-06-2005 22:35:02 24.7 C 8.37 g/m*3 24.7 C 0 km/h
474 19-06-2005 22:47:02 24.7 C 8.37 g/m*3 24.7 C 0 km/h
475 19-06-2005 22:59:02 24.3 C 8.19 g/m*3 24.3 C 0 km/h
Sensor: Nr:Datum:Temp:Abs-Feuchte:Windchill:Wind:
Aussen-T/F 476 19-06-2005 23:11:02 24 C 8.27 g/m*3 24 C 0 km/h
477 19-06-2005 23:23:02 23.7 C 8.56 g/m*3 23.7 C 0 km/h
478 19-06-2005 23:35:02 23.5 C 8.46 g/m*3 23.5 C 0 km/h
479 19-06-2005 23:47:02 23.2 C 8.73 g/m*3 23.2 C 0 km/h
480 19-06-2005 23:59:02 22.9 C 9.2 g/m*3 22.9 C 0 km/h
481 20-06-2005 00:11:02 22.5 C 9.39 g/m*3 22.5 C 0 km/h
482 20-06-2005 00:23:03 22.1 C 9.37 g/m*3 22.1 C 0 km/h
483 20-06-2005 00:35:02 21.8 C 9.59 g/m*3 21.8 C 0 km/h
484 20-06-2005 00:47:02 21.2 C 9.45 g/m*3 21.2 C 0 km/h
485 20-06-2005 00:59:02 21 C 9.53 g/m*3 21 C 0 km/h
486 20-06-2005 01:11:02 20.8 C 9.6 g/m*3 20.8 C 0 km/h
487 20-06-2005 01:23:01 20.6 C 9.49 g/m*3 20.6 C 0 km/h
488 20-06-2005 01:35:02 20.5 C 9.43 g/m*3 20.5 C 0 km/h
489 20-06-2005 01:47:02 20.1 C 9.21 g/m*3 20.1 C 0 km/h
490 20-06-2005 01:59:02 20 C 9.51 g/m*3 20 C 0 km/h
491 20-06-2005 02:11:02 19.7 C 9.51 g/m*3 19.7 C 0 km/h
492 20-06-2005 02:23:02 19.3 C 9.45 g/m*3 19.3 C 0 km/h
493 20-06-2005 02:35:01 19.1 C 9.51 g/m*3 19.1 C 0 km/h
494 20-06-2005 02:48:04 18.8 C 9.5 g/m*3 18.8 C 0 km/h
495 20-06-2005 03:00:04 18.7 C 9.61 g/m*3 18.7 C 0 km/h
496 20-06-2005 03:12:04 18.5 C 9.49 g/m*3 18.5 C 0 km/h
497 20-06-2005 03:24:04 18.3 C 9.69 g/m*3 18.3 C 0 km/h
498 20-06-2005 03:36:02 18 C 9.68 g/m*3 18 C 0 km/h
499 20-06-2005 03:48:02 17.9 C 9.77 g/m*3 17.9 C 0 km/h
500 20-06-2005 04:00:02 17.7 C 9.66 g/m*3 17.7 C 0 km/h
Sensor: Nr:Datum:Temp:Abs-Feuchte:Windchill:Wind:
Aussen-T/F 501 20-06-2005 04:12:01 17.5 C 9.84 g/m*3 17.5 C 0 km/h
502 20-06-2005 04:24:02 17.2 C 9.67 g/m*3 17.2 C 0 km/h
503 20-06-2005 04:36:02 17 C 9.84 g/m*3 17 C 0 km/h
504 20-06-2005 04:48:03 16.7 C 9.81 g/m*3 16.7 C 0 km/h
505 20-06-2005 05:00:03 16.7 C 9.81 g/m*3 16.7 C 0 km/h
506 20-06-2005 05:12:02 16.5 C 9.69 g/m*3 16.5 C 0 km/h
507 20-06-2005 05:24:02 16.4 C 9.63 g/m*3 16.4 C 0 km/h
508 20-06-2005 05:36:02 16.3 C 9.85 g/m*3 16.3 C 0 km/h
509 20-06-2005 05:48:02 16.2 C 9.79 g/m*3 16.2 C 0 km/h
510 20-06-2005 06:00:02 16.2 C 9.79 g/m*3 16.2 C 0 km/h
511 20-06-2005 06:12:02 16.2 C 9.93 g/m*3 16.2 C 0 km/h
512 20-06-2005 06:24:02 16 C 9.95 g/m*3 16 C 0 km/h
513 20-06-2005 06:36:02 16.2 C 10.07 g/m*3 16.2 C 0 km/h
514 20-06-2005 06:48:02 16.3 C 10.13 g/m*3 16.3 C 0 km/h
515 20-06-2005 07:00:02 16.4 C 10.19 g/m*3 16.4 C 0 km/h
516 20-06-2005 07:12:01 16.6 C 10.17 g/m*3 16.6 C 0 km/h
517 20-06-2005 07:24:02 16.9 C 10.36 g/m*3 16.9 C 0 km/h
518 20-06-2005 07:36:02 17 C 10.13 g/m*3 17 C 0 km/h
519 20-06-2005 07:48:02 17.3 C 10.16 g/m*3 17.3 C 0 km/h
520 20-06-2005 08:00:02 17.5 C 10.29 g/m*3 17.5 C 0 km/h
521 20-06-2005 08:12:02 17.7 C 10.56 g/m*3 17.7 C 0 km/h
522 20-06-2005 08:24:02 18.1 C 10.51 g/m*3 18.1 C 0 km/h
523 20-06-2005 08:36:02 18.5 C 10.6 g/m*3 18.5 C 0 km/h
524 20-06-2005 08:48:02 19.1 C 10.49 g/m*3 19.1 C 0 km/h
525 20-06-2005 09:00:02 19.6 C 10.64 g/m*3 19.6 C 0 km/h
Sensor: Nr:Datum:Temp:Abs-Feuchte:Windchill:Wind:
Aussen-T/F 526 20-06-2005 09:12:02 20.4 C 10.79 g/m*3 20.4 C 0 km/h
527 20-06-2005 09:24:01 21.3 C 10.81 g/m*3 21.3 C 0 km/h
528 20-06-2005 09:36:01 22.1 C 10.74 g/m*3 22.1 C 0 km/h
529 20-06-2005 09:48:02 23.1 C 10.96 g/m*3 23.1 C 0 km/h
530 20-06-2005 10:00:03 23.7 C 10.91 g/m*3 23.7 C 0 km/h
531 20-06-2005 10:12:02 24.7 C 11.32 g/m*3 24.7 C 0 km/h
532 20-06-2005 10:24:02 25.6 C 10.71 g/m*3 25.6 C 0 km/h
533 20-06-2005 10:36:02 26.5 C 10.51 g/m*3 26.5 C 0 km/h
534 20-06-2005 10:48:02 27.1 C 9.83 g/m*3 27.1 C 0 km/h
535 20-06-2005 11:00:03 27.6 C 9.84 g/m*3 27.6 C 0 km/h
536 20-06-2005 11:12:02 28.2 C 9.9 g/m*3 28.2 C 0 km/h
537 20-06-2005 11:24:02 28.9 C 9.14 g/m*3 28.9 C 0 km/h
538 20-06-2005 11:36:02 29.6 C 9.5 g/m*3 29.6 C 0 km/h
539 20-06-2005 11:48:02 29.7 C 8.06 g/m*3 29.7 C 0 km/h
540 20-06-2005 12:00:02 30.2 C 7.97 g/m*3 30.2 C 0 km/h
541 20-06-2005 12:12:02 30.3 C 7.7 g/m*3 30.3 C 0 km/h
542 20-06-2005 12:24:01 30.3 C 7.7 g/m*3 30.3 C 0 km/h
543 20-06-2005 12:36:02 31.1 C 8.37 g/m*3 31.1 C 0 km/h
544 20-06-2005 12:48:01 31.5 C 7.23 g/m*3 31.5 C 0 km/h
545 20-06-2005 13:00:01 32.1 C 7.13 g/m*3 32.1 C 0 km/h
546 20-06-2005 13:12:01 32 C 6.75 g/m*3 32 C 0 km/h
547 20-06-2005 13:24:01 31.7 C 6.64 g/m*3 31.7 C 0 km/h
548 20-06-2005 13:36:01 32.6 C 6.97 g/m*3 32.6 C 0 km/h
549 20-06-2005 13:48:01 32.9 C 7.08 g/m*3 32.9 C 0 km/h
550 20-06-2005 14:00:01 32.4 C 6.9 g/m*3 32.4 C 0 km/h
Sensor: Nr:Datum:Temp:Abs-Feuchte:Windchill:Wind:
Aussen-T/F 551 20-06-2005 14:12:01 32.4 C 6.9 g/m*3 32.4 C 0 km/h
552 20-06-2005 14:24:01 32.3 C 6.86 g/m*3 32.3 C 0 km/h
553 20-06-2005 14:36:02 32.6 C 6.97 g/m*3 32.6 C 0 km/h
554 20-06-2005 14:48:02 32.8 C 7.04 g/m*3 32.8 C 0 km/h
555 20-06-2005 15:00:03 33.3 C 7.23 g/m*3 33.3 C 0 km/h
556 20-06-2005 15:12:01 33.3 C 7.23 g/m*3 33.3 C 0 km/h
557 20-06-2005 15:24:01 33.6 C 7.35 g/m*3 33.6 C 0 km/h
558 20-06-2005 15:36:02 33.2 C 7.2 g/m*3 33.2 C 0 km/h
559 20-06-2005 15:48:03 33.7 C 7.39 g/m*3 33.7 C 0 km/h
560 20-06-2005 16:00:03 33.3 C 7.23 g/m*3 33.3 C 0 km/h
561 20-06-2005 16:12:02 34.1 C 7.54 g/m*3 34.1 C 0 km/h
562 20-06-2005 16:24:02 34.2 C 7.58 g/m*3 34.2 C 0 km/h
563 20-06-2005 16:36:04 34.4 C 7.66 g/m*3 34.4 C 0 km/h
564 20-06-2005 16:48:03 34.4 C 7.66 g/m*3 34.4 C 0 km/h
565 20-06-2005 17:00:03 34 C 7.5 g/m*3 34 C 0 km/h
566 20-06-2005 17:12:02 34.1 C 7.54 g/m*3 34.1 C 0 km/h
567 20-06-2005 17:24:04 34.2 C 7.58 g/m*3 34.2 C 0 km/h
568 20-06-2005 17:36:05 34.1 C 7.54 g/m*3 34.1 C 0 km/h
569 20-06-2005 17:48:03 34.3 C 7.62 g/m*3 34.3 C 0 km/h
570 20-06-2005 18:00:03 34.5 C 7.7 g/m*3 34.5 C 0 km/h
571 20-06-2005 18:12:04 34.3 C 7.62 g/m*3 34.3 C 0 km/h
572 20-06-2005 18:24:02 34.4 C 7.66 g/m*3 34.4 C 0 km/h
573 20-06-2005 18:36:03 34.5 C 7.7 g/m*3 34.5 C 0 km/h
574 20-06-2005 18:48:02 34.5 C 7.7 g/m*3 34.5 C 0 km/h
575 20-06-2005 19:00:02 33.7 C 7.39 g/m*3 33.7 C 0 km/h
Sensor: Nr:Datum:Temp:Abs-Feuchte:Windchill:Wind:
Aussen-T/F 576 20-06-2005 19:12:02 34.2 C 7.58 g/m*3 34.2 C 0 km/h
577 20-06-2005 19:24:01 34.4 C 7.66 g/m*3 34.4 C 0 km/h
578 20-06-2005 19:36:02 34.6 C 7.74 g/m*3 34.6 C 0 km/h
579 20-06-2005 19:48:02 34.2 C 7.58 g/m*3 34.2 C 0 km/h
580 20-06-2005 20:00:02 34.1 C 7.54 g/m*3 34.1 C 0 km/h
581 20-06-2005 20:12:02 33.7 C 8.13 g/m*3 33.7 C 0 km/h
582 20-06-2005 20:24:02 33.3 C 7.59 g/m*3 33.3 C 0 km/h
583 20-06-2005 20:36:03 33 C 7.83 g/m*3 33 C 0 km/h
584 20-06-2005 20:48:02 32.3 C 8.23 g/m*3 32.3 C 0 km/h
585 20-06-2005 21:00:02 31.3 C 8.78 g/m*3 31.3 C 0 km/h
586 20-06-2005 21:12:02 30.3 C 9.25 g/m*3 30.3 C 0 km/h
587 20-06-2005 21:24:02 29 C 8.62 g/m*3 29 C 0 km/h
588 20-06-2005 21:36:02 28.3 C 8.57 g/m*3 28.3 C 0 km/h
589 20-06-2005 21:48:02 28.3 C 8.85 g/m*3 28.3 C 0 km/h
590 20-06-2005 22:00:02 28.1 C 8.75 g/m*3 28.1 C 0 km/h
591 20-06-2005 22:12:02 27.8 C 8.61 g/m*3 27.8 C 0 km/h
592 20-06-2005 22:24:02 27.2 C 8.33 g/m*3 27.2 C 0 km/h
593 20-06-2005 22:36:02 26.8 C 8.91 g/m*3 26.8 C 0 km/h
594 20-06-2005 22:48:02 26.5 C 9.01 g/m*3 26.5 C 0 km/h
595 20-06-2005 23:00:02 26 C 8.52 g/m*3 26 C 0 km/h
596 20-06-2005 23:12:02 25.8 C 8.91 g/m*3 25.8 C 0 km/h
597 20-06-2005 23:24:02 25.5 C 8.76 g/m*3 25.5 C 0 km/h
598 20-06-2005 23:36:02 25.3 C 9.36 g/m*3 25.3 C 0 km/h
599 20-06-2005 23:48:02 25 C 9.44 g/m*3 25 C 0 km/h
600 21-06-2005 00:00:02 24.5 C 9.4 g/m*3 24.5 C 0 km/h
Sensor: Nr:Datum:Temp:Abs-Feuchte:Windchill:Wind:
Aussen-T/F 601 21-06-2005 00:12:02 24.1 C 9.63 g/m*3 24.1 C 0 km/h
602 21-06-2005 00:24:03 23.8 C 9.9 g/m*3 23.8 C 0 km/h
603 21-06-2005 00:36:02 23.5 C 9.94 g/m*3 23.5 C 0 km/h
604 21-06-2005 00:48:02 23.3 C 10.04 g/m*3 23.3 C 0 km/h
605 21-06-2005 01:00:02 22.9 C 10.22 g/m*3 22.9 C 0 km/h
606 21-06-2005 01:12:02 22.6 C 10.25 g/m*3 22.6 C 0 km/h
607 21-06-2005 01:24:03 22.3 C 10.07 g/m*3 22.3 C 0 km/h
608 21-06-2005 01:36:02 22.1 C 10.15 g/m*3 22.1 C 0 km/h
609 21-06-2005 01:48:02 21.8 C 10.36 g/m*3 21.8 C 0 km/h
610 21-06-2005 02:00:02 21.6 C 10.43 g/m*3 21.6 C 0 km/h
611 21-06-2005 02:12:02 21.4 C 10.69 g/m*3 21.4 C 0 km/h
612 21-06-2005 02:24:02 21.2 C 10.56 g/m*3 21.2 C 0 km/h
613 21-06-2005 02:36:02 20.9 C 10.56 g/m*3 20.9 C 0 km/h
614 21-06-2005 02:49:04 20.8 C 10.5 g/m*3 20.8 C 0 km/h
615 21-06-2005 03:01:04 20.6 C 10.56 g/m*3 20.6 C 0 km/h
616 21-06-2005 03:13:04 20.4 C 10.61 g/m*3 20.4 C 0 km/h
617 21-06-2005 03:25:04 20.1 C 10.6 g/m*3 20.1 C 0 km/h
618 21-06-2005 03:37:02 20 C 10.54 g/m*3 20 C 0 km/h
619 21-06-2005 03:49:02 19.7 C 10.53 g/m*3 19.7 C 0 km/h
620 21-06-2005 04:01:02 19.7 C 10.53 g/m*3 19.7 C 0 km/h
621 21-06-2005 04:13:02 19.5 C 10.41 g/m*3 19.5 C 0 km/h
622 21-06-2005 04:25:02 19.4 C 10.68 g/m*3 19.4 C 0 km/h
623 21-06-2005 04:37:01 19.1 C 10.49 g/m*3 19.1 C 0 km/h
624 21-06-2005 04:49:02 19.1 C 10.49 g/m*3 19.1 C 0 km/h
625 21-06-2005 05:01:02 19 C 10.43 g/m*3 19 C 0 km/h
Sensor: Nr:Datum:Temp:Abs-Feuchte:Windchill:Wind:
Aussen-T/F 626 21-06-2005 05:13:02 18.9 C 10.69 g/m*3 18.9 C 0 km/h
627 21-06-2005 05:25:02 19.1 C 10.49 g/m*3 19.1 C 0 km/h
628 21-06-2005 05:37:02 19 C 10.59 g/m*3 19 C 0 km/h
629 21-06-2005 05:49:01 19 C 10.59 g/m*3 19 C 0 km/h
630 21-06-2005 06:01:02 19.2 C 10.72 g/m*3 19.2 C 0 km/h
631 21-06-2005 06:13:02 19.3 C 10.78 g/m*3 19.3 C 0 km/h
632 21-06-2005 06:25:01 19.4 C 10.84 g/m*3 19.4 C 0 km/h
633 21-06-2005 06:37:01 19.1 C 10.82 g/m*3 19.1 C 0 km/h
634 21-06-2005 06:49:02 19.1 C 10.98 g/m*3 19.1 C 0 km/h
635 21-06-2005 07:01:02 19.6 C 10.97 g/m*3 19.6 C 0 km/h
636 21-06-2005 07:13:02 19.7 C 11.04 g/m*3 19.7 C 0 km/h
637 21-06-2005 07:25:02 19.8 C 11.1 g/m*3 19.8 C 0 km/h
638 21-06-2005 07:37:01 20 C 10.89 g/m*3 20 C 0 km/h
639 21-06-2005 07:49:02 20.6 C 11.1 g/m*3 20.6 C 0 km/h
640 21-06-2005 08:01:02 21.1 C 11.06 g/m*3 21.1 C 0 km/h
641 21-06-2005 08:13:02 21.5 C 11.13 g/m*3 21.5 C 0 km/h
642 21-06-2005 08:25:02 21.5 C 10.75 g/m*3 21.5 C 0 km/h
643 21-06-2005 08:37:02 21.8 C 10.74 g/m*3 21.8 C 0 km/h
644 21-06-2005 08:49:02 22.3 C 10.47 g/m*3 22.3 C 0 km/h
645 21-06-2005 09:01:02 23 C 10.69 g/m*3 23 C 0 km/h
646 21-06-2005 09:13:02 23.2 C 11.23 g/m*3 23.2 C 0 km/h
647 21-06-2005 09:25:02 23.7 C 11.34 g/m*3 23.7 C 0 km/h
648 21-06-2005 09:37:01 24.7 C 11.77 g/m*3 24.7 C 0 km/h
649 21-06-2005 09:49:02 25.7 C 11.49 g/m*3 25.7 C 0 km/h
650 21-06-2005 10:01:02 26.8 C 11.45 g/m*3 26.8 C 0 km/h
Sensor: Nr:Datum:Temp:Abs-Feuchte:Windchill:Wind:
Aussen-T/F 651 21-06-2005 10:13:02 27.5 C 11.11 g/m*3 27.5 C 0 km/h
652 21-06-2005 10:25:02 27.9 C 11.36 g/m*3 27.9 C 0 km/h
653 21-06-2005 10:37:02 28.5 C 11.46 g/m*3 28.5 C 0 km/h
654 21-06-2005 10:49:02 28.9 C 11.71 g/m*3 28.9 C 0 km/h
655 21-06-2005 11:01:02 29.3 C 11.39 g/m*3 29.3 C 0 km/h
656 21-06-2005 11:13:02 29.4 C 10.86 g/m*3 29.4 C 0 km/h
657 21-06-2005 11:25:01 29.9 C 11.46 g/m*3 29.9 C 0 km/h
658 21-06-2005 11:37:01 30.3 C 11.4 g/m*3 30.3 C 0 km/h
659 21-06-2005 11:49:02 30.9 C 10.82 g/m*3 30.9 C 0 km/h
660 21-06-2005 12:01:02 31.8 C 10.02 g/m*3 31.8 C 0 km/h
661 21-06-2005 12:13:02 32.1 C 8.48 g/m*3 32.1 C 0 km/h
662 21-06-2005 12:25:01 32.5 C 8.32 g/m*3 32.5 C 0 km/h
663 21-06-2005 12:37:01 32.6 C 7.32 g/m*3 32.6 C 0 km/h
664 21-06-2005 12:49:02 33 C 7.12 g/m*3 33 C 0 km/h
665 21-06-2005 13:01:02 32.8 C 7.04 g/m*3 32.8 C 0 km/h
666 21-06-2005 13:13:02 33.2 C 7.2 g/m*3 33.2 C 0 km/h
667 21-06-2005 13:25:02 33.7 C 7.39 g/m*3 33.7 C 0 km/h
668 21-06-2005 13:37:02 33.5 C 7.31 g/m*3 33.5 C 0 km/h
669 21-06-2005 13:49:02 33.3 C 7.23 g/m*3 33.3 C 0 km/h
670 21-06-2005 14:01:01 33 C 7.12 g/m*3 33 C 0 km/h
671 21-06-2005 14:13:01 33.6 C 7.72 g/m*3 33.6 C 0 km/h
672 21-06-2005 14:25:01 33.4 C 7.27 g/m*3 33.4 C 0 km/h
673 21-06-2005 14:37:02 33.5 C 7.31 g/m*3 33.5 C 0 km/h
674 21-06-2005 14:49:02 33.2 C 7.2 g/m*3 33.2 C 0 km/h
675 21-06-2005 15:01:02 32.3 C 9.26 g/m*3 32.3 C 0 km/h
Sensor: Nr:Datum:Temp:Abs-Feuchte:Windchill:Wind:
Aussen-T/F 676 21-06-2005 15:13:02 31.4 C 10.79 g/m*3 31.4 C 0 km/h
677 21-06-2005 15:25:02 30.9 C 11.46 g/m*3 30.9 C 0 km/h
678 21-06-2005 15:37:03 30.7 C 11.34 g/m*3 30.7 C 0 km/h
679 21-06-2005 15:49:03 30.7 C 11.34 g/m*3 30.7 C 0 km/h
680 21-06-2005 16:01:03 30.9 C 11.14 g/m*3 30.9 C 0 km/h
681 21-06-2005 16:13:03 31 C 11.2 g/m*3 31 C 0 km/h
682 21-06-2005 16:25:02 31.2 C 10.67 g/m*3 31.2 C 0 km/h
683 21-06-2005 16:37:02 32 C 10.13 g/m*3 32 C 0 km/h
684 21-06-2005 16:49:02 31.5 C 10.19 g/m*3 31.5 C 0 km/h
685 21-06-2005 17:01:02 32 C 10.13 g/m*3 32 C 0 km/h
686 21-06-2005 17:13:02 31.8 C 10.35 g/m*3 31.8 C 0 km/h
687 21-06-2005 17:25:02 31.1 C 10.94 g/m*3 31.1 C 0 km/h
688 21-06-2005 17:37:03 30.3 C 11.71 g/m*3 30.3 C 0 km/h
689 21-06-2005 17:49:02 30.1 C 11.59 g/m*3 30.1 C 0 km/h
690 21-06-2005 18:01:02 30.4 C 11.77 g/m*3 30.4 C 0 km/h
691 21-06-2005 18:13:02 31 C 11.2 g/m*3 31 C 0 km/h
692 21-06-2005 18:25:02 30.3 C 11.4 g/m*3 30.3 C 0 km/h
693 21-06-2005 18:37:02 31 C 10.88 g/m*3 31 C 0 km/h
694 21-06-2005 18:49:01 31.4 C 10.46 g/m*3 31.4 C 0 km/h
695 21-06-2005 19:01:01 31.2 C 11 g/m*3 31.2 C 0 km/h
696 21-06-2005 19:13:01 30.8 C 11.4 g/m*3 30.8 C 0 km/h
697 21-06-2005 19:25:01 30 C 11.22 g/m*3 30 C 0 km/h
698 21-06-2005 19:37:03 29.9 C 11.46 g/m*3 29.9 C 0 km/h
699 21-06-2005 19:49:02 30.1 C 11.59 g/m*3 30.1 C 0 km/h
700 21-06-2005 20:01:03 30.7 C 11.02 g/m*3 30.7 C 0 km/h
Sensor: Nr:Datum:Temp:Abs-Feuchte:Windchill:Wind:
Aussen-T/F 701 21-06-2005 20:13:03 30.3 C 11.71 g/m*3 30.3 C 0 km/h
702 21-06-2005 20:25:02 29.3 C 11.68 g/m*3 29.3 C 0 km/h
703 21-06-2005 20:37:03 29.3 C 11.39 g/m*3 29.3 C 0 km/h
704 21-06-2005 20:49:02 28.9 C 10.57 g/m*3 28.9 C 0 km/h
705 21-06-2005 21:01:02 28.4 C 10.01 g/m*3 28.4 C 0 km/h
706 21-06-2005 21:13:02 27.8 C 10.49 g/m*3 27.8 C 0 km/h
707 21-06-2005 21:25:01 27.6 C 9.58 g/m*3 27.6 C 0 km/h
708 21-06-2005 21:37:02 27 C 9.52 g/m*3 27 C 0 km/h
709 21-06-2005 21:49:01 26.8 C 9.67 g/m*3 26.8 C 0 km/h
710 21-06-2005 22:01:02 26.2 C 9.85 g/m*3 26.2 C 0 km/h
711 21-06-2005 22:13:02 25.8 C 9.87 g/m*3 25.8 C 0 km/h
712 21-06-2005 22:25:02 25.8 C 10.11 g/m*3 25.8 C 0 km/h
713 21-06-2005 22:37:02 25.4 C 10.12 g/m*3 25.4 C 0 km/h
714 21-06-2005 22:49:03 25.2 C 10.01 g/m*3 25.2 C 0 km/h
715 21-06-2005 23:01:03 24.9 C 10.3 g/m*3 24.9 C 0 km/h
716 21-06-2005 23:13:03 24.7 C 10.19 g/m*3 24.7 C 0 km/h
717 21-06-2005 23:25:02 24.6 C 10.13 g/m*3 24.6 C 0 km/h
718 21-06-2005 23:37:02 24.4 C 10.24 g/m*3 24.4 C 0 km/h
719 21-06-2005 23:49:02 24.1 C 10.5 g/m*3 24.1 C 0 km/h
720 22-06-2005 00:01:01 23.9 C 10.6 g/m*3 23.9 C 0 km/h
721 22-06-2005 00:13:01 23.8 C 10.33 g/m*3 23.8 C 0 km/h
722 22-06-2005 00:25:03 23.6 C 10.21 g/m*3 23.6 C 0 km/h
723 22-06-2005 00:37:04 23.5 C 10.15 g/m*3 23.5 C 0 km/h
724 22-06-2005 00:49:02 23.5 C 10.36 g/m*3 23.5 C 0 km/h
725 22-06-2005 01:01:02 23.3 C 10.25 g/m*3 23.3 C 0 km/h
Sensor: Nr:Datum:Temp:Abs-Feuchte:Windchill:Wind:
Aussen-T/F 726 22-06-2005 01:13:02 23 C 10.28 g/m*3 23 C 0 km/h
727 22-06-2005 01:25:02 22.9 C 10.22 g/m*3 22.9 C 0 km/h
728 22-06-2005 01:37:02 22.8 C 10.16 g/m*3 22.8 C 0 km/h
729 22-06-2005 01:49:02 22.5 C 9.99 g/m*3 22.5 C 0 km/h
730 22-06-2005 02:01:02 22.4 C 9.93 g/m*3 22.4 C 0 km/h
731 22-06-2005 02:13:02 22 C 10.09 g/m*3 22 C 0 km/h
732 22-06-2005 02:25:02 21.6 C 10.05 g/m*3 21.6 C 0 km/h
733 22-06-2005 02:37:01 21.4 C 9.94 g/m*3 21.4 C 0 km/h
734 22-06-2005 02:50:04 20.8 C 10.14 g/m*3 20.8 C 0 km/h
735 22-06-2005 03:02:04 20.5 C 9.96 g/m*3 20.5 C 0 km/h
736 22-06-2005 03:14:04 20.5 C 10.14 g/m*3 20.5 C 0 km/h
737 22-06-2005 03:26:04 20.4 C 9.73 g/m*3 20.4 C 0 km/h
738 22-06-2005 03:38:02 20 C 9.68 g/m*3 20 C 0 km/h
739 22-06-2005 03:50:02 19.8 C 9.74 g/m*3 19.8 C 0 km/h
740 22-06-2005 04:02:02 19.7 C 9.68 g/m*3 19.7 C 0 km/h
741 22-06-2005 04:14:02 19.6 C 9.62 g/m*3 19.6 C 0 km/h
742 22-06-2005 04:26:02 19.4 C 9.68 g/m*3 19.4 C 0 km/h
743 22-06-2005 04:38:02 19.1 C 9.51 g/m*3 19.1 C 0 km/h
744 22-06-2005 04:50:02 18.9 C 9.72 g/m*3 18.9 C 0 km/h
745 22-06-2005 05:02:01 18.6 C 9.87 g/m*3 18.6 C 0 km/h
746 22-06-2005 05:14:01 18.4 C 9.91 g/m*3 18.4 C 0 km/h
747 22-06-2005 05:26:01 18.2 C 9.79 g/m*3 18.2 C 0 km/h
748 22-06-2005 05:38:02 18.1 C 9.89 g/m*3 18.1 C 0 km/h
749 22-06-2005 05:50:02 17.9 C 10.08 g/m*3 17.9 C 0 km/h
750 22-06-2005 06:02:02 18 C 10.29 g/m*3 18 C 0 km/h
Sensor: Nr:Datum:Temp:Abs-Feuchte:Windchill:Wind:
Aussen-T/F 751 22-06-2005 06:14:03 18 C 10.29 g/m*3 18 C 0 km/h
752 22-06-2005 06:26:01 18 C 10.29 g/m*3 18 C 0 km/h
753 22-06-2005 06:38:02 17.8 C 10.47 g/m*3 17.8 C 0 km/h
754 22-06-2005 06:50:03 18.2 C 10.72 g/m*3 18.2 C 0 km/h
755 22-06-2005 07:02:02 17.9 C 10.69 g/m*3 17.9 C 0 km/h
756 22-06-2005 07:14:02 18 C 10.6 g/m*3 18 C 0 km/h
757 22-06-2005 07:26:02 18.1 C 10.66 g/m*3 18.1 C 0 km/h
758 22-06-2005 07:38:02 18.5 C 10.44 g/m*3 18.5 C 0 km/h
759 22-06-2005 07:50:02 18.8 C 10.15 g/m*3 18.8 C 0 km/h
760 22-06-2005 08:02:01 19.2 C 10.06 g/m*3 19.2 C 0 km/h
761 22-06-2005 08:14:01 19.3 C 10.12 g/m*3 19.3 C 0 km/h
762 22-06-2005 08:26:01 19.6 C 10.3 g/m*3 19.6 C 0 km/h
763 22-06-2005 08:38:01 19.7 C 10.19 g/m*3 19.7 C 0 km/h
764 22-06-2005 08:50:02 20 C 10.02 g/m*3 20 C 0 km/h
765 22-06-2005 09:02:02 20.3 C 10.02 g/m*3 20.3 C 0 km/h
766 22-06-2005 09:14:02 20.5 C 9.96 g/m*3 20.5 C 0 km/h
767 22-06-2005 09:26:02 21.3 C 9.88 g/m*3 21.3 C 0 km/h
768 22-06-2005 09:38:01 21.1 C 9.77 g/m*3 21.1 C 0 km/h
769 22-06-2005 09:50:02 21.7 C 9.73 g/m*3 21.7 C 0 km/h
770 22-06-2005 10:02:01 22.5 C 9.39 g/m*3 22.5 C 0 km/h
771 22-06-2005 10:14:01 23 C 9.25 g/m*3 23 C 0 km/h
772 22-06-2005 10:26:02 23.4 C 9.25 g/m*3 23.4 C 0 km/h
773 22-06-2005 10:38:02 23.8 C 9.03 g/m*3 23.8 C 0 km/h
774 22-06-2005 10:50:02 23.2 C 8.73 g/m*3 23.2 C 0 km/h
775 22-06-2005 11:02:02 23.3 C 8.99 g/m*3 23.3 C 0 km/h
Sensor: Nr:Datum:Temp:Abs-Feuchte:Windchill:Wind:
Aussen-T/F 776 22-06-2005 11:14:02 24.5 C 9.18 g/m*3 24.5 C 0 km/h
777 22-06-2005 11:26:02 24.4 C 8.68 g/m*3 24.4 C 0 km/h
778 22-06-2005 11:38:03 25 C 8.52 g/m*3 25 C 0 km/h
779 22-06-2005 11:50:02 25.1 C 8.33 g/m*3 25.1 C 0 km/h
780 22-06-2005 12:02:02 25.1 C 8.8 g/m*3 25.1 C 0 km/h
781 22-06-2005 12:14:02 26.3 C 8.91 g/m*3 26.3 C 0 km/h
782 22-06-2005 12:26:02 26.2 C 8.62 g/m*3 26.2 C 0 km/h
783 22-06-2005 12:38:01 27.3 C 8.37 g/m*3 27.3 C 0 km/h
784 22-06-2005 12:50:02 26.1 C 8.08 g/m*3 26.1 C 0 km/h
785 22-06-2005 13:02:01 27.4 C 8.68 g/m*3 27.4 C 0 km/h
786 22-06-2005 13:14:01 28.2 C 8.25 g/m*3 28.2 C 0 km/h
787 22-06-2005 13:26:02 28 C 7.89 g/m*3 28 C 0 km/h
788 22-06-2005 13:38:02 28.5 C 7.83 g/m*3 28.5 C 0 km/h
789 22-06-2005 13:50:02 28.5 C 7.83 g/m*3 28.5 C 0 km/h
790 22-06-2005 14:02:02 27.3 C 7.33 g/m*3 27.3 C 0 km/h
791 22-06-2005 14:14:02 28.2 C 7.7 g/m*3 28.2 C 0 km/h
792 22-06-2005 14:26:02 27.9 C 7.84 g/m*3 27.9 C 0 km/h
793 22-06-2005 14:38:03 28.4 C 7.51 g/m*3 28.4 C 0 km/h
794 22-06-2005 14:50:02 29 C 7.47 g/m*3 29 C 0 km/h
795 22-06-2005 15:02:02 29.6 C 7.72 g/m*3 29.6 C 0 km/h
796 22-06-2005 15:14:02 30 C 7.58 g/m*3 30 C 0 km/h
797 22-06-2005 15:26:02 29.8 C 7.5 g/m*3 29.8 C 0 km/h
798 22-06-2005 15:38:02 30 C 7.58 g/m*3 30 C 0 km/h
799 22-06-2005 15:50:02 29.7 C 8.06 g/m*3 29.7 C 0 km/h
800 22-06-2005 16:02:02 30.7 C 7.24 g/m*3 30.7 C 0 km/h
Sensor: Nr:Datum:Temp:Abs-Feuchte:Windchill:Wind:
Aussen-T/F 801 22-06-2005 16:14:02 29.5 C 7.38 g/m*3 29.5 C 0 km/h
802 22-06-2005 16:26:02 30.1 C 7.62 g/m*3 30.1 C 0 km/h
803 22-06-2005 16:38:02 31.3 C 6.83 g/m*3 31.3 C 0 km/h
804 22-06-2005 16:50:03 31.4 C 6.87 g/m*3 31.4 C 0 km/h
805 22-06-2005 17:02:03 31.4 C 7.19 g/m*3 31.4 C 0 km/h
806 22-06-2005 17:14:03 31.8 C 6.68 g/m*3 31.8 C 0 km/h
807 22-06-2005 17:26:02 31.8 C 7.01 g/m*3 31.8 C 0 km/h
808 22-06-2005 17:38:02 31.6 C 6.94 g/m*3 31.6 C 0 km/h
809 22-06-2005 17:50:03 31.9 C 6.72 g/m*3 31.9 C 0 km/h
810 22-06-2005 18:02:02 32.3 C 6.86 g/m*3 32.3 C 0 km/h
811 22-06-2005 18:14:02 30.7 C 6.61 g/m*3 30.7 C 0 km/h
812 22-06-2005 18:26:02 31.4 C 6.87 g/m*3 31.4 C 0 km/h
813 22-06-2005 18:38:03 31.2 C 6.47 g/m*3 31.2 C 0 km/h
814 22-06-2005 18:50:02 31.2 C 6.79 g/m*3 31.2 C 0 km/h
815 22-06-2005 19:02:02 30.6 C 6.89 g/m*3 30.6 C 0 km/h
816 22-06-2005 19:14:02 31 C 6.72 g/m*3 31 C 0 km/h
817 22-06-2005 19:26:03 31.2 C 6.79 g/m*3 31.2 C 0 km/h
818 22-06-2005 19:38:02 31.3 C 6.83 g/m*3 31.3 C 0 km/h
819 22-06-2005 19:50:02 31 C 6.72 g/m*3 31 C 0 km/h
820 22-06-2005 20:02:02 31.2 C 6.79 g/m*3 31.2 C 0 km/h
821 22-06-2005 20:14:02 29.6 C 7.12 g/m*3 29.6 C 0 km/h
822 22-06-2005 20:26:02 29.2 C 7.26 g/m*3 29.2 C 0 km/h
823 22-06-2005 20:38:02 29.2 C 7.55 g/m*3 29.2 C 0 km/h
824 22-06-2005 20:50:02 28.2 C 7.15 g/m*3 28.2 C 0 km/h
825 22-06-2005 21:02:03 28.5 C 8.11 g/m*3 28.5 C 0 km/h
Sensor: Nr:Datum:Temp:Abs-Feuchte:Windchill:Wind:
Aussen-T/F 826 22-06-2005 21:14:03 27.9 C 8.38 g/m*3 27.9 C 0 km/h
827 22-06-2005 21:26:03 27.1 C 8.54 g/m*3 27.1 C 0 km/h
828 22-06-2005 21:38:02 26.1 C 8.57 g/m*3 26.1 C 0 km/h
829 22-06-2005 21:50:03 25.5 C 8.52 g/m*3 25.5 C 0 km/h
830 22-06-2005 22:02:02 24.8 C 8.88 g/m*3 24.8 C 0 km/h
831 22-06-2005 22:14:02 24.3 C 8.63 g/m*3 24.3 C 0 km/h
832 22-06-2005 22:26:02 23.8 C 8.82 g/m*3 23.8 C 0 km/h
833 22-06-2005 22:38:02 23.4 C 8.83 g/m*3 23.4 C 0 km/h
834 22-06-2005 22:50:02 23.1 C 8.89 g/m*3 23.1 C 0 km/h
835 22-06-2005 23:02:01 22.8 C 8.94 g/m*3 22.8 C 0 km/h
836 22-06-2005 23:14:01 22.7 C 8.89 g/m*3 22.7 C 0 km/h
837 22-06-2005 23:26:02 22.5 C 8.99 g/m*3 22.5 C 0 km/h
838 22-06-2005 23:38:02 22.2 C 8.83 g/m*3 22.2 C 0 km/h
839 22-06-2005 23:50:02 21.9 C 9.07 g/m*3 21.9 C 0 km/h

Legende:
   Min
   Max


Maximal/Minimal-Werte vom 14.04.2020 - 16.05.2020

Sensor Min Max Avg
Temp
(Aussen-T/F)
-0.1 °C
15-04-2020  06:55:00
26.2 °C
17-04-2020  18:05:00
11.98 °C

Die Daten stammen von einer Davis Vantage Pro 2 Wetter-Station und werden unter Linux mit der Software wview2wettercgi und aufbereitet. Alle Angaben erfolgen ohne Gewähr für ihre Vollständigkeit oder Richtigkeit.
Kontakt: Rainer Krienke krienke@uni-koblenz.de . Meine Webseiten an der Uni Koblenz oder privat.
Version: $Revision: 0.78 $